Clackamas, OR (97015)

3:51 PM PST on February 06, 2016 (GMT -0800)
Southern Ridge Neighborhood | | Change Station
CLOSE
Current Station
Personal Weather Station
Location: Happy Valley, OR
Elevation: 640 ft
Nearby Weather Stations

Elev 640 ft 45.43 °N, 122.51 °W | Updated 46 seconds ago

Partly Cloudy
Partly Cloudy
50.5 °F
Feels Like 50.5 °F
N
0.2
Wind Variable Wind from South
Gusts 2.5 mph

Today
High -- | Low -- °F
--% Chance of Precip.
Yesterday
High -- | Low -- °F
Precip. -- in
Pressure 30.44 in
Visibility 10.0 miles
Clouds Clear
Dew Point 34 °F
Humidity 53%
Rainfall 0.00 in
Snow Depth Not available.
7:25 AM 5:23 PM
Waning Crescent, 3% visible
METAR KTTD 062253Z 00000KT 10SM CLR 12/02 A3044 RMK AO2 SLP307 T01170022
Pressure 30.44 in
Visibility 10.0 miles
Clouds Clear
Dew Point 34 °F
Humidity 53%
Rainfall 0.00 in
Snow Depth Not available.
7:25 AM 5:23 PM
Waning Crescent, 3% visible
METAR KTTD 062253Z 00000KT 10SM CLR 12/02 A3044 RMK AO2 SLP307 T01170022

10-Day Weather Forecast

Almanac

Astronomy

Feb. 06, 2016 Rise Set
Actual Time
Civil Twilight
Nautical Twilight
Astronomical Twilight
Moon
Length of Visible Light
Length of Day
Tomorrow will be .
, % of the Moon is Illuminated

Today's Extremes

State Highs State Lows

Community

WunderPhotos

Upload Photos

1,891,098 photos uploaded!

WunderBlog® & News

Nearby

Air Quality

  Air Quality AQ Index Pollutant
Not available.

Snow Depth

Station Depth Elevation

Earthquake Activity

City Distance Mag. Time & Date
Minimum magnitude displayed is 2.5.

Coastal Water Temperatures

Place Temperature

Stations

Nearby Weather Stations

Station Location Temp. Windchill Dew Point Humidity Wind Precip. Elev Updated Type
                   

Watches & Warnings

There are currently no watches in effect.